sensor_id;sensor_type;location;lat;lon;timestamp;P1;durP1;ratioP1;P2;durP2;ratioP2
28459;SDS011;32528;45.712;9.192;2023-12-14T00:01:51;101.88;;;46.80;;
28459;SDS011;32528;45.712;9.192;2023-12-14T00:03:52;107.75;;;50.88;;
28459;SDS011;32528;45.712;9.192;2023-12-14T00:05:53;119.78;;;59.53;;
28459;SDS011;32528;45.712;9.192;2023-12-14T00:07:53;100.35;;;48.30;;
28459;SDS011;32528;45.712;9.192;2023-12-14T00:09:54;106.82;;;44.38;;
28459;SDS011;32528;45.712;9.192;2023-12-14T00:11:55;103.78;;;46.05;;
28459;SDS011;32528;45.712;9.192;2023-12-14T00:13:56;107.40;;;50.67;;
28459;SDS011;32528;45.712;9.192;2023-12-14T00:15:56;104.40;;;46.63;;
28459;SDS011;32528;45.712;9.192;2023-12-14T00:17:57;103.28;;;47.38;;
28459;SDS011;32528;45.712;9.192;2023-12-14T00:19:58;129.35;;;64.20;;
28459;SDS011;32528;45.712;9.192;2023-12-14T00:21:59;152.75;;;67.57;;
28459;SDS011;32528;45.712;9.192;2023-12-14T00:23:59;105.57;;;47.78;;
28459;SDS011;32528;45.712;9.192;2023-12-14T00:26:00;117.43;;;51.70;;
28459;SDS011;32528;45.712;9.192;2023-12-14T00:28:01;108.43;;;48.15;;
28459;SDS011;32528;45.712;9.192;2023-12-14T00:30:02;128.25;;;53.58;;
28459;SDS011;32528;45.712;9.192;2023-12-14T00:32:03;107.53;;;50.35;;
28459;SDS011;32528;45.712;9.192;2023-12-14T00:34:04;118.13;;;56.22;;
28459;SDS011;32528;45.712;9.192;2023-12-14T00:36:06;127.97;;;56.50;;
28459;SDS011;32528;45.712;9.192;2023-12-14T00:38:07;115.60;;;49.95;;
28459;SDS011;32528;45.712;9.192;2023-12-14T00:40:08;110.50;;;50.28;;
28459;SDS011;32528;45.712;9.192;2023-12-14T00:42:09;124.53;;;50.33;;
28459;SDS011;32528;45.712;9.192;2023-12-14T00:44:10;173.38;;;48.40;;
28459;SDS011;32528;45.712;9.192;2023-12-14T00:46:11;116.80;;;49.95;;
28459;SDS011;32528;45.712;9.192;2023-12-14T00:48:12;132.07;;;47.45;;
28459;SDS011;32528;45.712;9.192;2023-12-14T00:50:12;104.78;;;45.00;;
28459;SDS011;32528;45.712;9.192;2023-12-14T00:52:13;116.00;;;47.00;;
28459;SDS011;32528;45.712;9.192;2023-12-14T00:54:14;121.25;;;50.42;;
28459;SDS011;32528;45.712;9.192;2023-12-14T00:56:15;96.80;;;46.83;;
28459;SDS011;32528;45.712;9.192;2023-12-14T00:58:15;129.77;;;47.78;;
28459;SDS011;32528;45.712;9.192;2023-12-14T01:00:16;106.22;;;46.45;;
28459;SDS011;32528;45.712;9.192;2023-12-14T01:02:18;138.55;;;47.53;;
28459;SDS011;32528;45.712;9.192;2023-12-14T01:04:19;155.45;;;45.55;;
28459;SDS011;32528;45.712;9.192;2023-12-14T01:06:19;109.70;;;45.92;;
28459;SDS011;32528;45.712;9.192;2023-12-14T01:08:20;135.18;;;44.78;;
28459;SDS011;32528;45.712;9.192;2023-12-14T01:10:21;115.30;;;45.42;;
28459;SDS011;32528;45.712;9.192;2023-12-14T01:12:22;99.18;;;44.42;;
28459;SDS011;32528;45.712;9.192;2023-12-14T01:14:23;132.90;;;44.30;;
28459;SDS011;32528;45.712;9.192;2023-12-14T01:16:25;119.65;;;44.35;;
28459;SDS011;32528;45.712;9.192;2023-12-14T01:18:27;97.38;;;40.45;;
28459;SDS011;32528;45.712;9.192;2023-12-14T01:20:28;100.65;;;41.83;;
28459;SDS011;32528;45.712;9.192;2023-12-14T01:22:29;89.45;;;41.83;;
28459;SDS011;32528;45.712;9.192;2023-12-14T01:24:30;108.40;;;40.55;;
28459;SDS011;32528;45.712;9.192;2023-12-14T01:26:30;95.18;;;41.08;;
28459;SDS011;32528;45.712;9.192;2023-12-14T01:28:31;107.95;;;38.78;;
28459;SDS011;32528;45.712;9.192;2023-12-14T01:30:32;86.53;;;39.13;;
28459;SDS011;32528;45.712;9.192;2023-12-14T01:32:32;106.18;;;37.60;;
28459;SDS011;32528;45.712;9.192;2023-12-14T01:34:33;105.90;;;39.33;;
28459;SDS011;32528;45.712;9.192;2023-12-14T01:36:34;117.20;;;36.40;;
28459;SDS011;32528;45.712;9.192;2023-12-14T01:38:35;92.30;;;42.78;;
28459;SDS011;32528;45.712;9.192;2023-12-14T01:40:35;81.88;;;40.03;;
28459;SDS011;32528;45.712;9.192;2023-12-14T01:42:36;75.60;;;38.60;;
28459;SDS011;32528;45.712;9.192;2023-12-14T01:44:37;83.80;;;38.30;;
28459;SDS011;32528;45.712;9.192;2023-12-14T01:46:37;88.60;;;36.70;;
28459;SDS011;32528;45.712;9.192;2023-12-14T01:48:38;107.15;;;37.90;;
28459;SDS011;32528;45.712;9.192;2023-12-14T01:50:39;87.93;;;37.45;;
28459;SDS011;32528;45.712;9.192;2023-12-14T01:52:39;63.05;;;33.05;;
28459;SDS011;32528;45.712;9.192;2023-12-14T01:54:40;69.63;;;33.78;;
28459;SDS011;32528;45.712;9.192;2023-12-14T01:56:41;69.28;;;32.95;;
28459;SDS011;32528;45.712;9.192;2023-12-14T01:58:41;63.05;;;32.38;;
28459;SDS011;32528;45.712;9.192;2023-12-14T02:00:49;62.33;;;32.70;;
28459;SDS011;32528;45.712;9.192;2023-12-14T02:04:54;60.65;;;30.35;;
28459;SDS011;32528;45.712;9.192;2023-12-14T02:08:55;58.25;;;28.48;;
28459;SDS011;32528;45.712;9.192;2023-12-14T02:10:56;61.13;;;30.33;;
28459;SDS011;32528;45.712;9.192;2023-12-14T02:12:56;66.50;;;32.20;;
28459;SDS011;32528;45.712;9.192;2023-12-14T02:14:57;65.43;;;30.35;;
28459;SDS011;32528;45.712;9.192;2023-12-14T02:16:59;71.65;;;32.38;;
28459;SDS011;32528;45.712;9.192;2023-12-14T02:18:59;72.18;;;33.55;;
28459;SDS011;32528;45.712;9.192;2023-12-14T02:21:00;64.43;;;32.05;;
28459;SDS011;32528;45.712;9.192;2023-12-14T02:23:01;84.35;;;34.60;;
28459;SDS011;32528;45.712;9.192;2023-12-14T02:25:02;76.55;;;33.97;;
28459;SDS011;32528;45.712;9.192;2023-12-14T02:27:04;76.78;;;35.95;;
28459;SDS011;32528;45.712;9.192;2023-12-14T02:29:05;80.88;;;35.80;;
28459;SDS011;32528;45.712;9.192;2023-12-14T02:31:05;73.53;;;34.55;;
28459;SDS011;32528;45.712;9.192;2023-12-14T02:33:06;71.50;;;35.20;;
28459;SDS011;32528;45.712;9.192;2023-12-14T02:35:07;77.05;;;33.03;;
28459;SDS011;32528;45.712;9.192;2023-12-14T02:37:08;72.43;;;33.90;;
28459;SDS011;32528;45.712;9.192;2023-12-14T02:39:09;70.47;;;35.20;;
28459;SDS011;32528;45.712;9.192;2023-12-14T02:41:10;71.43;;;34.53;;
28459;SDS011;32528;45.712;9.192;2023-12-14T02:43:11;79.40;;;33.72;;
28459;SDS011;32528;45.712;9.192;2023-12-14T02:45:11;71.60;;;35.05;;
28459;SDS011;32528;45.712;9.192;2023-12-14T02:47:12;70.25;;;33.42;;
28459;SDS011;32528;45.712;9.192;2023-12-14T02:49:13;68.55;;;32.42;;
28459;SDS011;32528;45.712;9.192;2023-12-14T02:51:14;65.00;;;33.20;;
28459;SDS011;32528;45.712;9.192;2023-12-14T02:53:15;71.82;;;31.60;;
28459;SDS011;32528;45.712;9.192;2023-12-14T02:55:15;70.88;;;35.90;;
28459;SDS011;32528;45.712;9.192;2023-12-14T02:57:16;74.55;;;33.58;;
28459;SDS011;32528;45.712;9.192;2023-12-14T02:59:17;63.63;;;32.78;;
28459;SDS011;32528;45.712;9.192;2023-12-14T03:01:20;94.68;;;48.42;;
28459;SDS011;32528;45.712;9.192;2023-12-14T03:03:21;63.47;;;33.67;;
28459;SDS011;32528;45.712;9.192;2023-12-14T03:05:22;70.45;;;33.38;;
28459;SDS011;32528;45.712;9.192;2023-12-14T03:07:23;78.57;;;33.13;;
28459;SDS011;32528;45.712;9.192;2023-12-14T03:09:23;67.18;;;32.58;;
28459;SDS011;32528;45.712;9.192;2023-12-14T03:11:24;63.33;;;31.30;;
28459;SDS011;32528;45.712;9.192;2023-12-14T03:13:25;56.03;;;29.10;;
28459;SDS011;32528;45.712;9.192;2023-12-14T03:15:28;56.08;;;28.70;;
28459;SDS011;32528;45.712;9.192;2023-12-14T03:17:29;62.92;;;32.45;;
28459;SDS011;32528;45.712;9.192;2023-12-14T03:19:30;55.05;;;28.33;;
28459;SDS011;32528;45.712;9.192;2023-12-14T03:21:31;58.00;;;27.80;;
28459;SDS011;32528;45.712;9.192;2023-12-14T03:23:32;62.85;;;31.33;;
28459;SDS011;32528;45.712;9.192;2023-12-14T03:25:32;60.10;;;29.65;;
28459;SDS011;32528;45.712;9.192;2023-12-14T03:27:33;53.97;;;29.38;;
28459;SDS011;32528;45.712;9.192;2023-12-14T03:29:34;58.08;;;28.83;;
28459;SDS011;32528;45.712;9.192;2023-12-14T03:31:35;60.13;;;27.05;;
28459;SDS011;32528;45.712;9.192;2023-12-14T03:33:36;56.67;;;29.58;;
28459;SDS011;32528;45.712;9.192;2023-12-14T03:35:36;60.80;;;28.00;;
28459;SDS011;32528;45.712;9.192;2023-12-14T03:37:38;53.45;;;27.92;;
28459;SDS011;32528;45.712;9.192;2023-12-14T03:39:38;58.10;;;30.00;;
28459;SDS011;32528;45.712;9.192;2023-12-14T03:41:39;54.92;;;27.95;;
28459;SDS011;32528;45.712;9.192;2023-12-14T03:43:40;60.40;;;29.13;;
28459;SDS011;32528;45.712;9.192;2023-12-14T03:45:40;63.42;;;30.48;;
28459;SDS011;32528;45.712;9.192;2023-12-14T03:47:41;63.08;;;29.88;;
28459;SDS011;32528;45.712;9.192;2023-12-14T03:49:42;65.47;;;29.33;;
28459;SDS011;32528;45.712;9.192;2023-12-14T03:51:43;53.88;;;28.98;;
28459;SDS011;32528;45.712;9.192;2023-12-14T03:53:44;50.03;;;25.45;;
28459;SDS011;32528;45.712;9.192;2023-12-14T03:55:45;67.78;;;29.33;;
28459;SDS011;32528;45.712;9.192;2023-12-14T03:57:46;54.30;;;27.85;;
28459;SDS011;32528;45.712;9.192;2023-12-14T03:59:47;49.42;;;26.50;;
28459;SDS011;32528;45.712;9.192;2023-12-14T04:01:48;47.20;;;25.88;;
28459;SDS011;32528;45.712;9.192;2023-12-14T04:03:48;49.20;;;27.52;;
28459;SDS011;32528;45.712;9.192;2023-12-14T04:05:49;49.92;;;26.65;;
28459;SDS011;32528;45.712;9.192;2023-12-14T04:07:50;47.50;;;25.85;;
28459;SDS011;32528;45.712;9.192;2023-12-14T04:09:51;51.78;;;26.10;;
28459;SDS011;32528;45.712;9.192;2023-12-14T04:11:51;43.22;;;24.33;;
28459;SDS011;32528;45.712;9.192;2023-12-14T04:13:52;51.75;;;24.88;;
28459;SDS011;32528;45.712;9.192;2023-12-14T04:15:56;54.50;;;26.83;;
28459;SDS011;32528;45.712;9.192;2023-12-14T04:17:57;44.55;;;23.23;;
28459;SDS011;32528;45.712;9.192;2023-12-14T04:19:58;47.45;;;25.45;;
28459;SDS011;32528;45.712;9.192;2023-12-14T04:21:59;38.03;;;22.10;;
28459;SDS011;32528;45.712;9.192;2023-12-14T04:24:00;56.47;;;25.35;;
28459;SDS011;32528;45.712;9.192;2023-12-14T04:26:01;46.60;;;25.48;;
28459;SDS011;32528;45.712;9.192;2023-12-14T04:28:01;46.38;;;25.10;;
28459;SDS011;32528;45.712;9.192;2023-12-14T04:30:03;64.95;;;25.23;;
28459;SDS011;32528;45.712;9.192;2023-12-14T04:32:04;56.10;;;26.38;;
28459;SDS011;32528;45.712;9.192;2023-12-14T04:34:05;50.35;;;25.48;;
28459;SDS011;32528;45.712;9.192;2023-12-14T04:36:12;51.05;;;25.73;;
28459;SDS011;32528;45.712;9.192;2023-12-14T04:38:12;89.25;;;25.15;;
28459;SDS011;32528;45.712;9.192;2023-12-14T04:40:13;114.63;;;25.35;;
28459;SDS011;32528;45.712;9.192;2023-12-14T04:42:14;101.13;;;26.70;;
28459;SDS011;32528;45.712;9.192;2023-12-14T04:44:14;104.35;;;23.98;;
28459;SDS011;32528;45.712;9.192;2023-12-14T04:46:15;73.43;;;21.33;;
28459;SDS011;32528;45.712;9.192;2023-12-14T04:48:16;57.75;;;22.25;;
28459;SDS011;32528;45.712;9.192;2023-12-14T04:50:17;126.47;;;26.13;;
28459;SDS011;32528;45.712;9.192;2023-12-14T04:52:17;142.48;;;30.08;;
28459;SDS011;32528;45.712;9.192;2023-12-14T04:54:18;92.13;;;24.92;;
28459;SDS011;32528;45.712;9.192;2023-12-14T04:56:19;73.80;;;22.58;;
28459;SDS011;32528;45.712;9.192;2023-12-14T04:58:20;64.35;;;22.02;;
28459;SDS011;32528;45.712;9.192;2023-12-14T05:00:21;97.85;;;23.23;;
28459;SDS011;32528;45.712;9.192;2023-12-14T05:02:21;91.18;;;21.88;;
28459;SDS011;32528;45.712;9.192;2023-12-14T05:04:22;76.10;;;22.75;;
28459;SDS011;32528;45.712;9.192;2023-12-14T05:06:23;61.70;;;21.13;;
28459;SDS011;32528;45.712;9.192;2023-12-14T05:08:24;92.15;;;22.27;;
28459;SDS011;32528;45.712;9.192;2023-12-14T05:10:24;39.63;;;22.65;;
28459;SDS011;32528;45.712;9.192;2023-12-14T05:12:25;42.35;;;22.27;;
28459;SDS011;32528;45.712;9.192;2023-12-14T05:14:27;54.15;;;20.42;;
28459;SDS011;32528;45.712;9.192;2023-12-14T05:16:29;82.40;;;21.77;;
28459;SDS011;32528;45.712;9.192;2023-12-14T05:18:30;43.22;;;19.63;;
28459;SDS011;32528;45.712;9.192;2023-12-14T05:20:31;52.60;;;19.63;;
28459;SDS011;32528;45.712;9.192;2023-12-14T05:22:32;43.55;;;19.30;;
28459;SDS011;32528;45.712;9.192;2023-12-14T05:24:33;50.22;;;19.65;;
28459;SDS011;32528;45.712;9.192;2023-12-14T05:26:33;44.30;;;19.48;;
28459;SDS011;32528;45.712;9.192;2023-12-14T05:28:34;61.63;;;19.90;;
28459;SDS011;32528;45.712;9.192;2023-12-14T05:30:35;35.92;;;20.38;;
28459;SDS011;32528;45.712;9.192;2023-12-14T05:32:36;41.15;;;17.98;;
28459;SDS011;32528;45.712;9.192;2023-12-14T05:34:36;47.30;;;23.73;;
28459;SDS011;32528;45.712;9.192;2023-12-14T05:36:37;62.95;;;20.88;;
28459;SDS011;32528;45.712;9.192;2023-12-14T05:38:38;37.35;;;19.00;;
28459;SDS011;32528;45.712;9.192;2023-12-14T05:40:40;48.45;;;18.23;;
28459;SDS011;32528;45.712;9.192;2023-12-14T05:42:41;50.88;;;20.05;;
28459;SDS011;32528;45.712;9.192;2023-12-14T05:44:41;44.60;;;18.58;;
28459;SDS011;32528;45.712;9.192;2023-12-14T05:46:42;44.63;;;17.50;;
28459;SDS011;32528;45.712;9.192;2023-12-14T05:48:43;64.72;;;18.90;;
28459;SDS011;32528;45.712;9.192;2023-12-14T05:50:44;51.00;;;17.88;;
28459;SDS011;32528;45.712;9.192;2023-12-14T05:52:44;71.47;;;20.15;;
28459;SDS011;32528;45.712;9.192;2023-12-14T05:54:46;62.65;;;16.65;;
28459;SDS011;32528;45.712;9.192;2023-12-14T05:56:46;35.28;;;17.10;;
28459;SDS011;32528;45.712;9.192;2023-12-14T05:58:47;29.67;;;17.25;;
28459;SDS011;32528;45.712;9.192;2023-12-14T06:00:48;28.75;;;16.75;;
28459;SDS011;32528;45.712;9.192;2023-12-14T06:02:49;43.63;;;16.92;;
28459;SDS011;32528;45.712;9.192;2023-12-14T06:04:50;44.45;;;17.30;;
28459;SDS011;32528;45.712;9.192;2023-12-14T06:06:51;47.67;;;18.25;;
28459;SDS011;32528;45.712;9.192;2023-12-14T06:08:52;58.17;;;18.65;;
28459;SDS011;32528;45.712;9.192;2023-12-14T06:10:52;30.88;;;17.42;;
28459;SDS011;32528;45.712;9.192;2023-12-14T06:12:53;37.35;;;20.33;;
28459;SDS011;32528;45.712;9.192;2023-12-14T06:14:54;54.58;;;19.20;;
28459;SDS011;32528;45.712;9.192;2023-12-14T06:16:55;64.75;;;17.27;;
28459;SDS011;32528;45.712;9.192;2023-12-14T06:18:56;48.42;;;18.38;;
28459;SDS011;32528;45.712;9.192;2023-12-14T06:20:57;135.32;;;20.33;;
28459;SDS011;32528;45.712;9.192;2023-12-14T06:22:57;57.72;;;17.48;;
28459;SDS011;32528;45.712;9.192;2023-12-14T06:24:58;65.20;;;18.65;;
28459;SDS011;32528;45.712;9.192;2023-12-14T06:26:59;93.03;;;17.55;;
28459;SDS011;32528;45.712;9.192;2023-12-14T06:29:00;88.38;;;18.85;;
28459;SDS011;32528;45.712;9.192;2023-12-14T06:31:00;48.40;;;17.02;;
28459;SDS011;32528;45.712;9.192;2023-12-14T06:33:01;78.80;;;18.23;;
28459;SDS011;32528;45.712;9.192;2023-12-14T06:35:02;82.22;;;19.38;;
28459;SDS011;32528;45.712;9.192;2023-12-14T06:37:03;93.15;;;17.55;;
28459;SDS011;32528;45.712;9.192;2023-12-14T06:39:04;103.07;;;18.60;;
28459;SDS011;32528;45.712;9.192;2023-12-14T06:41:05;91.50;;;16.00;;
28459;SDS011;32528;45.712;9.192;2023-12-14T06:43:05;49.65;;;17.80;;
28459;SDS011;32528;45.712;9.192;2023-12-14T06:45:06;79.45;;;19.15;;
28459;SDS011;32528;45.712;9.192;2023-12-14T06:47:08;54.85;;;16.60;;
28459;SDS011;32528;45.712;9.192;2023-12-14T06:49:09;80.20;;;18.13;;
28459;SDS011;32528;45.712;9.192;2023-12-14T06:51:09;51.33;;;17.25;;
28459;SDS011;32528;45.712;9.192;2023-12-14T06:53:10;93.13;;;20.35;;
28459;SDS011;32528;45.712;9.192;2023-12-14T06:55:11;66.80;;;19.55;;
28459;SDS011;32528;45.712;9.192;2023-12-14T06:57:14;76.60;;;20.02;;
28459;SDS011;32528;45.712;9.192;2023-12-14T06:59:15;102.07;;;21.80;;
28459;SDS011;32528;45.712;9.192;2023-12-14T07:01:16;74.30;;;22.15;;
28459;SDS011;32528;45.712;9.192;2023-12-14T07:03:18;51.65;;;18.35;;
28459;SDS011;32528;45.712;9.192;2023-12-14T07:05:18;81.30;;;20.58;;
28459;SDS011;32528;45.712;9.192;2023-12-14T07:07:19;108.53;;;21.05;;
28459;SDS011;32528;45.712;9.192;2023-12-14T07:09:20;138.25;;;20.40;;
28459;SDS011;32528;45.712;9.192;2023-12-14T07:11:20;116.78;;;24.27;;
28459;SDS011;32528;45.712;9.192;2023-12-14T07:13:21;85.30;;;31.08;;
28459;SDS011;32528;45.712;9.192;2023-12-14T07:15:22;110.28;;;31.83;;
28459;SDS011;32528;45.712;9.192;2023-12-14T07:17:23;83.63;;;28.30;;
28459;SDS011;32528;45.712;9.192;2023-12-14T07:19:24;127.07;;;31.02;;
28459;SDS011;32528;45.712;9.192;2023-12-14T07:21:25;107.65;;;28.20;;
28459;SDS011;32528;45.712;9.192;2023-12-14T07:23:26;111.32;;;27.83;;
28459;SDS011;32528;45.712;9.192;2023-12-14T07:25:27;105.85;;;23.70;;
28459;SDS011;32528;45.712;9.192;2023-12-14T07:27:27;54.67;;;22.17;;
28459;SDS011;32528;45.712;9.192;2023-12-14T07:29:28;88.28;;;24.45;;
28459;SDS011;32528;45.712;9.192;2023-12-14T07:31:29;131.00;;;30.80;;
28459;SDS011;32528;45.712;9.192;2023-12-14T07:33:30;226.77;;;37.17;;
28459;SDS011;32528;45.712;9.192;2023-12-14T07:35:31;122.07;;;28.98;;
28459;SDS011;32528;45.712;9.192;2023-12-14T07:37:31;105.82;;;27.45;;
28459;SDS011;32528;45.712;9.192;2023-12-14T07:39:32;102.78;;;30.13;;
28459;SDS011;32528;45.712;9.192;2023-12-14T07:41:33;78.68;;;28.05;;
28459;SDS011;32528;45.712;9.192;2023-12-14T07:43:34;96.03;;;26.05;;
28459;SDS011;32528;45.712;9.192;2023-12-14T07:45:34;70.53;;;25.15;;
28459;SDS011;32528;45.712;9.192;2023-12-14T07:47:36;66.80;;;25.00;;
28459;SDS011;32528;45.712;9.192;2023-12-14T07:49:36;54.95;;;26.83;;
28459;SDS011;32528;45.712;9.192;2023-12-14T07:51:37;49.20;;;23.15;;
28459;SDS011;32528;45.712;9.192;2023-12-14T07:53:38;43.63;;;21.45;;
28459;SDS011;32528;45.712;9.192;2023-12-14T07:55:41;43.15;;;23.33;;
28459;SDS011;32528;45.712;9.192;2023-12-14T07:57:42;62.80;;;25.23;;
28459;SDS011;32528;45.712;9.192;2023-12-14T07:59:42;47.78;;;24.25;;
28459;SDS011;32528;45.712;9.192;2023-12-14T08:01:43;44.45;;;18.35;;
28459;SDS011;32528;45.712;9.192;2023-12-14T08:03:44;43.15;;;16.63;;
28459;SDS011;32528;45.712;9.192;2023-12-14T08:05:45;36.72;;;17.98;;
28459;SDS011;32528;45.712;9.192;2023-12-14T08:07:45;54.72;;;20.42;;
28459;SDS011;32528;45.712;9.192;2023-12-14T08:09:46;35.67;;;19.45;;
28459;SDS011;32528;45.712;9.192;2023-12-14T08:11:47;37.47;;;20.65;;
28459;SDS011;32528;45.712;9.192;2023-12-14T08:13:48;37.63;;;19.67;;
28459;SDS011;32528;45.712;9.192;2023-12-14T08:15:48;38.53;;;19.95;;
28459;SDS011;32528;45.712;9.192;2023-12-14T08:17:49;31.20;;;17.75;;
28459;SDS011;32528;45.712;9.192;2023-12-14T08:19:50;51.95;;;20.52;;
28459;SDS011;32528;45.712;9.192;2023-12-14T08:21:51;56.78;;;22.40;;
28459;SDS011;32528;45.712;9.192;2023-12-14T08:23:52;96.55;;;23.17;;
28459;SDS011;32528;45.712;9.192;2023-12-14T08:25:53;97.50;;;24.13;;
28459;SDS011;32528;45.712;9.192;2023-12-14T08:27:57;83.97;;;25.75;;
28459;SDS011;32528;45.712;9.192;2023-12-14T08:29:57;128.88;;;26.02;;
28459;SDS011;32528;45.712;9.192;2023-12-14T08:31:58;94.55;;;41.35;;
28459;SDS011;32528;45.712;9.192;2023-12-14T08:33:59;108.22;;;36.67;;
28459;SDS011;32528;45.712;9.192;2023-12-14T08:36:00;103.00;;;29.25;;
28459;SDS011;32528;45.712;9.192;2023-12-14T08:38:01;78.82;;;23.75;;
28459;SDS011;32528;45.712;9.192;2023-12-14T08:40:01;78.07;;;30.52;;
28459;SDS011;32528;45.712;9.192;2023-12-14T08:42:03;105.63;;;34.15;;
28459;SDS011;32528;45.712;9.192;2023-12-14T08:44:04;128.93;;;27.05;;
28459;SDS011;32528;45.712;9.192;2023-12-14T08:46:05;55.60;;;23.70;;
28459;SDS011;32528;45.712;9.192;2023-12-14T08:48:05;103.50;;;25.77;;
28459;SDS011;32528;45.712;9.192;2023-12-14T08:50:06;128.27;;;24.67;;
28459;SDS011;32528;45.712;9.192;2023-12-14T08:52:08;57.50;;;23.55;;
28459;SDS011;32528;45.712;9.192;2023-12-14T08:54:11;44.95;;;22.58;;
28459;SDS011;32528;45.712;9.192;2023-12-14T08:56:12;68.15;;;23.92;;
28459;SDS011;32528;45.712;9.192;2023-12-14T08:58:13;72.45;;;25.52;;
28459;SDS011;32528;45.712;9.192;2023-12-14T09:00:13;53.90;;;24.77;;
28459;SDS011;32528;45.712;9.192;2023-12-14T09:02:16;49.80;;;26.17;;
28459;SDS011;32528;45.712;9.192;2023-12-14T09:04:16;84.35;;;30.35;;
28459;SDS011;32528;45.712;9.192;2023-12-14T09:06:17;68.22;;;31.23;;
28459;SDS011;32528;45.712;9.192;2023-12-14T09:08:18;75.72;;;25.70;;
28459;SDS011;32528;45.712;9.192;2023-12-14T09:12:20;53.75;;;25.98;;
28459;SDS011;32528;45.712;9.192;2023-12-14T09:14:20;57.67;;;30.38;;
28459;SDS011;32528;45.712;9.192;2023-12-14T09:16:21;64.00;;;31.00;;
28459;SDS011;32528;45.712;9.192;2023-12-14T09:18:22;51.67;;;29.45;;
28459;SDS011;32528;45.712;9.192;2023-12-14T09:20:23;68.68;;;35.03;;
28459;SDS011;32528;45.712;9.192;2023-12-14T09:28:27;40.85;;;21.40;;
28459;SDS011;32528;45.712;9.192;2023-12-14T09:30:27;40.17;;;19.25;;
28459;SDS011;32528;45.712;9.192;2023-12-14T09:32:28;40.30;;;20.63;;
28459;SDS011;32528;45.712;9.192;2023-12-14T09:34:30;44.97;;;23.25;;
28459;SDS011;32528;45.712;9.192;2023-12-14T09:36:31;55.08;;;24.65;;
28459;SDS011;32528;45.712;9.192;2023-12-14T09:38:31;61.13;;;27.20;;
28459;SDS011;32528;45.712;9.192;2023-12-14T09:40:32;50.55;;;27.05;;
28459;SDS011;32528;45.712;9.192;2023-12-14T09:42:38;59.83;;;26.63;;
28459;SDS011;32528;45.712;9.192;2023-12-14T09:44:39;62.25;;;31.52;;
28459;SDS011;32528;45.712;9.192;2023-12-14T09:46:40;57.03;;;31.88;;
28459;SDS011;32528;45.712;9.192;2023-12-14T09:48:46;60.25;;;28.50;;
28459;SDS011;32528;45.712;9.192;2023-12-14T09:50:48;49.95;;;27.88;;
28459;SDS011;32528;45.712;9.192;2023-12-14T09:52:50;59.67;;;27.88;;
28459;SDS011;32528;45.712;9.192;2023-12-14T09:54:51;75.43;;;37.50;;
28459;SDS011;32528;45.712;9.192;2023-12-14T09:56:52;64.07;;;30.73;;
28459;SDS011;32528;45.712;9.192;2023-12-14T09:58:53;62.75;;;29.35;;
28459;SDS011;32528;45.712;9.192;2023-12-14T10:02:56;60.67;;;29.77;;
28459;SDS011;32528;45.712;9.192;2023-12-14T10:04:56;59.85;;;31.45;;
28459;SDS011;32528;45.712;9.192;2023-12-14T10:06:57;59.67;;;31.38;;
28459;SDS011;32528;45.712;9.192;2023-12-14T10:08:58;52.05;;;28.63;;
28459;SDS011;32528;45.712;9.192;2023-12-14T10:10:58;53.08;;;28.58;;
28459;SDS011;32528;45.712;9.192;2023-12-14T10:13:01;62.70;;;28.85;;
28459;SDS011;32528;45.712;9.192;2023-12-14T10:15:01;57.63;;;28.52;;
28459;SDS011;32528;45.712;9.192;2023-12-14T10:17:18;56.15;;;31.42;;
28459;SDS011;32528;45.712;9.192;2023-12-14T10:19:21;58.55;;;28.85;;
28459;SDS011;32528;45.712;9.192;2023-12-14T10:21:22;53.78;;;30.15;;
28459;SDS011;32528;45.712;9.192;2023-12-14T10:23:23;57.20;;;29.27;;
28459;SDS011;32528;45.712;9.192;2023-12-14T10:25:24;58.58;;;30.85;;
28459;SDS011;32528;45.712;9.192;2023-12-14T10:27:25;81.13;;;33.60;;
28459;SDS011;32528;45.712;9.192;2023-12-14T10:29:26;71.38;;;31.33;;
28459;SDS011;32528;45.712;9.192;2023-12-14T10:31:27;58.00;;;28.15;;
28459;SDS011;32528;45.712;9.192;2023-12-14T10:33:28;49.25;;;26.27;;
28459;SDS011;32528;45.712;9.192;2023-12-14T10:35:29;53.60;;;27.10;;
28459;SDS011;32528;45.712;9.192;2023-12-14T10:37:30;56.53;;;29.35;;
28459;SDS011;32528;45.712;9.192;2023-12-14T10:39:37;61.05;;;35.10;;
28459;SDS011;32528;45.712;9.192;2023-12-14T10:41:43;54.10;;;27.70;;
28459;SDS011;32528;45.712;9.192;2023-12-14T10:43:51;53.70;;;29.20;;
28459;SDS011;32528;45.712;9.192;2023-12-14T10:45:55;60.05;;;30.90;;
28459;SDS011;32528;45.712;9.192;2023-12-14T10:47:56;53.05;;;27.48;;
28459;SDS011;32528;45.712;9.192;2023-12-14T10:50:00;53.00;;;28.27;;
28459;SDS011;32528;45.712;9.192;2023-12-14T10:52:02;57.78;;;29.10;;
28459;SDS011;32528;45.712;9.192;2023-12-14T10:54:04;54.58;;;29.67;;
28459;SDS011;32528;45.712;9.192;2023-12-14T10:56:05;54.15;;;29.25;;
28459;SDS011;32528;45.712;9.192;2023-12-14T10:58:10;59.38;;;31.92;;
28459;SDS011;32528;45.712;9.192;2023-12-14T11:00:11;70.20;;;33.10;;
28459;SDS011;32528;45.712;9.192;2023-12-14T11:02:13;66.68;;;32.28;;
28459;SDS011;32528;45.712;9.192;2023-12-14T11:04:15;55.28;;;29.33;;
28459;SDS011;32528;45.712;9.192;2023-12-14T11:06:20;63.78;;;31.33;;
28459;SDS011;32528;45.712;9.192;2023-12-14T11:08:24;68.13;;;34.75;;
28459;SDS011;32528;45.712;9.192;2023-12-14T11:10:26;53.17;;;30.27;;
28459;SDS011;32528;45.712;9.192;2023-12-14T11:12:28;63.92;;;35.05;;
28459;SDS011;32528;45.712;9.192;2023-12-14T11:14:29;63.42;;;34.40;;
28459;SDS011;32528;45.712;9.192;2023-12-14T11:16:30;66.55;;;35.30;;
28459;SDS011;32528;45.712;9.192;2023-12-14T11:18:30;61.13;;;35.20;;
28459;SDS011;32528;45.712;9.192;2023-12-14T11:20:39;59.20;;;32.85;;
28459;SDS011;32528;45.712;9.192;2023-12-14T11:22:48;55.55;;;29.90;;
28459;SDS011;32528;45.712;9.192;2023-12-14T11:24:52;64.13;;;30.50;;
28459;SDS011;32528;45.712;9.192;2023-12-14T11:26:54;56.00;;;28.90;;
28459;SDS011;32528;45.712;9.192;2023-12-14T11:28:55;56.05;;;29.02;;
28459;SDS011;32528;45.712;9.192;2023-12-14T11:32:57;59.95;;;29.13;;
28459;SDS011;32528;45.712;9.192;2023-12-14T11:34:58;60.03;;;28.55;;
28459;SDS011;32528;45.712;9.192;2023-12-14T11:36:59;54.95;;;27.80;;
28459;SDS011;32528;45.712;9.192;2023-12-14T11:38:59;60.28;;;29.90;;
28459;SDS011;32528;45.712;9.192;2023-12-14T11:41:00;54.25;;;27.75;;
28459;SDS011;32528;45.712;9.192;2023-12-14T11:43:02;47.33;;;27.75;;
28459;SDS011;32528;45.712;9.192;2023-12-14T11:45:08;56.70;;;27.58;;
28459;SDS011;32528;45.712;9.192;2023-12-14T11:47:09;57.25;;;30.48;;
28459;SDS011;32528;45.712;9.192;2023-12-14T11:49:09;56.22;;;31.70;;
28459;SDS011;32528;45.712;9.192;2023-12-14T11:51:10;61.45;;;30.73;;
28459;SDS011;32528;45.712;9.192;2023-12-14T11:53:11;58.55;;;30.50;;
28459;SDS011;32528;45.712;9.192;2023-12-14T11:55:12;54.00;;;34.80;;
28459;SDS011;32528;45.712;9.192;2023-12-14T11:57:15;57.75;;;31.33;;
28459;SDS011;32528;45.712;9.192;2023-12-14T11:59:17;61.42;;;35.38;;
28459;SDS011;32528;45.712;9.192;2023-12-14T12:01:21;54.03;;;30.80;;
28459;SDS011;32528;45.712;9.192;2023-12-14T12:03:23;49.38;;;28.08;;